Time;durP1;ratioP1;P1;durP2;ratioP2;P2;SDS_P1;SDS_P2;PMS_P1;PMS_P2;Temp;Humidity;BMP_temperature;BMP_pressure;BME280_temperature;BME280_humidity;BME280_pressure;Samples;Min_cycle;Max_cycle;Signal;HPM_P1;HPM_P2
2022/10/02 00:01:32;;;;;;;12.10;1.45;;;;;;;-145.69;100.00;71880.00;5034590;28;20200;-76
2022/10/02 00:04:01;;;;;;;9.75;1.60;;;;;;;-145.69;100.00;71870.03;5034905;28;20555;-76
2022/10/02 00:06:41;;;;;;;10.00;1.37;;;;;;;-145.69;100.00;71824.25;5034587;28;20278;-76
2022/10/02 00:09:15;;;;;;;6.93;1.60;;;;;;;-145.69;100.00;71832.22;5034244;28;20617;-76
2022/10/02 00:11:45;;;;;;;9.27;1.53;;;;;;;-145.69;100.00;71856.09;5034659;28;20226;-76
2022/10/02 00:14:15;;;;;;;8.18;1.50;;;;;;;-145.69;100.00;71848.16;5034867;28;20200;-75
2022/10/02 00:16:46;;;;;;;8.53;1.70;;;;;;;-145.69;100.00;71854.13;5034387;28;20227;-76
2022/10/02 00:19:17;;;;;;;10.15;1.85;;;;;;;-145.69;100.00;71860.09;5033966;28;20669;-75
2022/10/02 00:21:54;;;;;;;10.15;1.60;;;;;;;-145.69;100.00;71856.09;5034308;28;20204;-76
2022/10/02 00:24:26;;;;;;;5.85;0.95;;;;;;;-145.69;100.00;71866.06;5034282;28;20211;-76
2022/10/02 00:26:58;;;;;;;9.33;1.50;;;;;;;-145.69;100.00;71850.13;5034429;28;20200;-76
2022/10/02 00:29:38;;;;;;;10.23;1.60;;;;;;;-145.69;100.00;71856.09;5034285;28;20200;-76
2022/10/02 00:32:20;;;;;;;7.60;1.50;;;;;;;-145.69;100.00;71868.06;5034382;28;20191;-76
2022/10/02 00:34:58;;;;;;;6.37;1.40;;;;;;;-145.69;100.00;71872.03;5034288;28;20200;-76
2022/10/02 00:37:37;;;;;;;10.13;1.53;;;;;;;-145.69;100.00;71876.00;5034122;28;20575;-76
2022/10/02 00:40:22;;;;;;;7.10;1.13;;;;;;;-145.69;100.00;71876.00;5033783;28;20238;-76
2022/10/02 00:43:09;;;;;;;6.27;1.43;;;;;;;-145.69;100.00;71864.06;5033659;28;20206;-76
2022/10/02 00:45:49;;;;;;;6.97;1.60;;;;;;;-145.69;100.00;71883.97;5034044;28;20290;-76
2022/10/02 00:48:35;;;;;;;10.00;1.97;;;;;;;-145.69;100.00;71887.94;5032540;28;20544;-75
2022/10/02 00:51:12;;;;;;;6.77;1.37;;;;;;;-145.69;100.00;71897.91;5014221;28;20215;-76
2022/10/02 00:53:49;;;;;;;8.87;1.53;;;;;;;-145.69;100.00;71901.88;5013939;28;20655;-76
2022/10/02 00:56:27;;;;;;;11.53;1.90;;;;;;;-145.69;100.00;71901.88;5013941;28;20208;-76
2022/10/02 00:59:21;;;;;;;10.40;1.63;;;;;;;-145.69;100.00;71907.84;5013582;28;20228;-76
2022/10/02 01:01:53;;;;;;;13.20;1.90;;;;;;;-145.69;100.00;71925.75;5012860;28;20201;-75
2022/10/02 01:04:30;;;;;;;15.30;1.97;;;;;;;-145.69;100.00;71911.84;5013838;28;20200;-76
2022/10/02 01:06:57;;;;;;;8.88;1.60;;;;;;;-145.69;100.00;71903.88;5013564;28;20206;-76
2022/10/02 01:09:24;;;;;;;27.03;2.23;;;;;;;-145.69;100.00;71887.94;5013451;28;20201;-76
2022/10/02 01:11:51;;;;;;;9.17;1.67;;;;;;;-145.69;100.00;71844.16;5013933;28;20211;-75
2022/10/02 01:14:18;;;;;;;11.18;1.88;;;;;;;-145.69;100.00;71828.25;5013653;28;20204;-76
2022/10/02 01:16:45;;;;;;;6.73;1.40;;;;;;;-145.69;100.00;71832.22;5013419;28;20320;-76
2022/10/02 01:19:25;;;;;;;11.13;1.90;;;;;;;-145.69;100.00;71838.19;5021245;28;20326;-76
2022/10/02 01:21:58;;;;;;;7.57;1.60;;;;;;;-145.69;100.00;71858.09;5033310;28;20200;-76
2022/10/02 01:24:31;;;;;;;5.27;1.40;;;;;;;-145.69;100.00;71846.16;5033176;28;20206;-76
2022/10/02 01:27:00;;;;;;;10.70;1.58;;;;;;;-145.69;100.00;71844.16;5033310;28;20207;-75
2022/10/02 01:29:26;;;;;;;9.80;1.40;;;;;;;-145.69;100.00;71852.13;5033240;28;20195;-75
2022/10/02 01:31:53;;;;;;;12.98;1.63;;;;;;;-145.69;100.00;71858.09;5033175;28;20204;-76
2022/10/02 01:34:20;;;;;;;9.07;1.67;;;;;;;-145.69;100.00;71856.09;5032585;28;20201;-76
2022/10/02 01:36:47;;;;;;;10.23;1.75;;;;;;;-145.69;100.00;71856.09;5033192;28;20203;-76
2022/10/02 01:39:13;;;;;;;6.95;1.42;;;;;;;-145.69;100.00;71846.16;5033165;28;20250;-75
2022/10/02 01:41:44;;;;;;;8.05;1.25;;;;;;;-145.69;100.00;71820.28;5032835;28;20200;-75
2022/10/02 01:44:13;;;;;;;7.00;1.38;;;;;;;-145.69;100.00;71828.25;5032914;28;20693;-75
2022/10/02 01:46:49;;;;;;;4.05;1.30;;;;;;;-145.69;100.00;71838.19;5033016;28;20207;-76
2022/10/02 01:49:33;;;;;;;12.32;2.13;;;;;;;-145.69;100.00;71852.13;5032913;28;20200;-75
2022/10/02 01:52:23;;;;;;;6.63;1.75;;;;;;;-145.69;100.00;71852.13;5032834;28;20206;-76
2022/10/02 01:55:09;;;;;;;5.03;1.42;;;;;;;-145.69;100.00;71864.06;5032785;28;20207;-76
2022/10/02 01:57:49;;;;;;;7.20;1.50;;;;;;;-145.69;100.00;71864.06;5032809;28;20196;-75
2022/10/02 02:00:18;;;;;;;9.70;1.67;;;;;;;-145.69;100.00;71880.00;5034356;28;20227;-76
2022/10/02 02:02:53;;;;;;;4.40;1.30;;;;;;;-145.69;100.00;71883.97;5036790;28;20203;-75
2022/10/02 02:05:30;;;;;;;14.10;1.45;;;;;;;-145.69;100.00;71883.97;5037022;28;20200;-75
2022/10/02 02:08:07;;;;;;;10.52;1.25;;;;;;;-145.69;100.00;71889.94;5037123;28;20200;-75
2022/10/02 02:10:44;;;;;;;6.90;1.50;;;;;;;-145.69;100.00;71883.97;5036683;28;20658;-75
2022/10/02 02:13:16;;;;;;;4.90;1.33;;;;;;;-145.69;100.00;71872.03;5036973;28;20196;-75
2022/10/02 02:15:51;;;;;;;10.93;1.52;;;;;;;-145.69;100.00;71840.19;5036318;28;20236;-75
2022/10/02 02:18:28;;;;;;;9.03;1.70;;;;;;;-145.69;100.00;71822.28;5036557;28;20210;-76
2022/10/02 02:20:59;;;;;;;8.00;1.20;;;;;;;-145.69;100.00;71816.31;5036580;28;20219;-75
2022/10/02 02:23:29;;;;;;;4.72;1.38;;;;;;;-145.69;100.00;71810.34;5036726;28;20204;-75
2022/10/02 02:26:00;;;;;;;6.43;1.67;;;;;;;-145.69;100.00;71820.28;5036266;28;20679;-75
2022/10/02 02:28:29;;;;;;;5.40;1.30;;;;;;;-145.69;100.00;71804.38;5036500;28;20203;-76
2022/10/02 02:31:00;;;;;;;12.80;1.83;;;;;;;-145.69;100.00;71824.25;5036067;28;20200;-75
2022/10/02 02:33:32;;;;;;;16.77;1.85;;;;;;;-145.69;100.00;71840.19;5036609;28;20251;-75
2022/10/02 02:36:03;;;;;;;10.80;1.30;;;;;;;-145.69;100.00;71822.28;5035961;28;20204;-75
2022/10/02 02:38:34;;;;;;;4.25;1.27;;;;;;;-145.69;100.00;71820.28;5036307;28;20658;-75
2022/10/02 02:41:05;;;;;;;6.65;1.70;;;;;;;-145.69;100.00;71826.25;5035753;28;20202;-76
2022/10/02 02:43:38;;;;;;;8.38;1.73;;;;;;;-145.69;100.00;71834.22;5035868;28;20196;-75
2022/10/02 02:46:13;;;;;;;7.75;1.58;;;;;;;-145.69;100.00;71832.22;5035953;28;20682;-75
2022/10/02 02:48:44;;;;;;;7.15;1.00;;;;;;;-145.69;100.00;71848.16;5036143;28;20208;-75
2022/10/02 02:51:16;;;;;;;7.32;1.55;;;;;;;-145.69;100.00;71856.09;5036068;28;20208;-75
2022/10/02 02:53:49;;;;;;;5.93;1.33;;;;;;;-145.69;100.00;71858.09;5035763;28;20211;-76
2022/10/02 02:56:18;;;;;;;12.00;1.48;;;;;;;-145.69;100.00;71860.09;5036147;28;20200;-76
2022/10/02 02:58:48;;;;;;;7.22;1.23;;;;;;;-145.69;100.00;71844.16;5035898;28;20226;-76
2022/10/02 03:01:16;;;;;;;9.90;1.42;;;;;;;-145.69;100.00;71846.16;5035641;28;20197;-76
2022/10/02 03:03:43;;;;;;;7.03;1.77;;;;;;;-145.69;100.00;71856.09;5035633;28;20200;-76
2022/10/02 03:06:30;;;;;;;9.73;1.30;;;;;;;-145.69;100.00;71860.09;5035657;28;20203;-76
2022/10/02 03:08:57;;;;;;;4.75;1.40;;;;;;;-145.69;100.00;71880.00;5035867;28;20199;-77
2022/10/02 03:11:33;;;;;;;6.97;1.42;;;;;;;-145.69;100.00;71885.97;5034796;28;20211;-76
2022/10/02 03:14:10;;;;;;;8.82;1.60;;;;;;;-145.69;100.00;71883.97;5036262;28;20200;-76
2022/10/02 03:16:51;;;;;;;8.88;1.70;;;;;;;-145.69;100.00;71885.97;5035903;28;20714;-76
2022/10/02 03:19:33;;;;;;;8.30;1.27;;;;;;;-145.69;100.00;71876.00;5035428;28;20255;-76
2022/10/02 03:22:08;;;;;;;8.88;1.40;;;;;;;-145.69;100.00;71878.00;5035330;28;20208;-76
2022/10/02 03:24:41;;;;;;;5.75;1.20;;;;;;;-145.69;100.00;71874.03;5035479;28;20211;-76
2022/10/02 03:27:12;;;;;;;7.20;1.50;;;;;;;-145.69;100.00;71876.00;5035410;28;20658;-76
2022/10/02 03:29:42;;;;;;;11.07;1.98;;;;;;;-145.69;100.00;71862.06;5035211;28;20200;-76
2022/10/02 03:32:13;;;;;;;10.43;1.30;;;;;;;-145.69;100.00;71856.09;5034936;28;20188;-76
2022/10/02 03:34:40;;;;;;;11.10;1.58;;;;;;;-145.69;100.00;71824.25;5035391;28;20219;-76
2022/10/02 03:37:07;;;;;;;12.85;1.92;;;;;;;-145.69;100.00;71824.25;5034787;28;20207;-76
2022/10/02 03:39:34;;;;;;;4.03;1.25;;;;;;;-145.69;100.00;71824.25;5035013;28;20318;-76
2022/10/02 03:42:01;;;;;;;12.20;1.70;;;;;;;-145.69;100.00;71828.25;5035152;28;20532;-76
2022/10/02 03:44:27;;;;;;;8.02;1.30;;;;;;;-145.69;100.00;71842.19;5034998;28;20199;-75
2022/10/02 03:46:54;;;;;;;13.35;1.73;;;;;;;-145.69;100.00;71824.25;5034888;28;20196;-76
2022/10/02 03:49:21;;;;;;;9.77;1.55;;;;;;;-145.69;100.00;71822.28;5035077;28;20204;-77
2022/10/02 03:51:48;;;;;;;5.60;1.33;;;;;;;-145.69;100.00;71812.31;5034932;28;20536;-77
2022/10/02 03:54:19;;;;;;;8.70;1.48;;;;;;;-145.69;100.00;71794.41;5035157;28;20204;-76
2022/10/02 03:56:54;;;;;;;9.00;1.63;;;;;;;-145.69;100.00;71780.50;5034511;28;20690;-76
2022/10/02 03:59:31;;;;;;;10.25;1.70;;;;;;;-145.69;100.00;71788.44;5034913;28;20227;-75
2022/10/02 04:02:03;;;;;;;9.20;2.20;;;;;;;-145.69;100.00;71812.31;5034947;28;20283;-76
2022/10/02 04:04:40;;;;;;;11.30;1.90;;;;;;;-145.69;100.00;71820.28;5034301;28;20208;-76
2022/10/02 04:07:16;;;;;;;9.60;1.38;;;;;;;-145.69;100.00;71824.25;5034841;28;20196;-76
2022/10/02 04:09:48;;;;;;;8.30;1.50;;;;;;;-145.69;100.00;71832.22;5034763;28;20214;-76
2022/10/02 04:12:23;;;;;;;16.08;1.83;;;;;;;-145.69;100.00;71812.31;5034516;28;20210;-76
2022/10/02 04:14:55;;;;;;;6.38;1.50;;;;;;;-145.69;100.00;71810.34;5019612;28;20668;-76
2022/10/02 04:17:27;;;;;;;10.60;1.80;;;;;;;-145.69;100.00;71812.31;5033898;28;20227;-76
2022/10/02 04:19:59;;;;;;;8.18;1.40;;;;;;;-145.69;100.00;71812.31;5034678;28;20228;-75
2022/10/02 04:22:33;;;;;;;12.25;1.98;;;;;;;-145.69;100.00;71812.31;5034035;28;20222;-76
2022/10/02 04:25:04;;;;;;;7.85;1.25;;;;;;;-145.69;100.00;71796.41;5034444;28;20233;-76
2022/10/02 04:27:36;;;;;;;7.22;1.08;;;;;;;-145.69;100.00;71794.41;5034255;28;20204;-76
2022/10/02 04:30:05;;;;;;;9.90;1.35;;;;;;;-145.69;100.00;71800.38;5034434;28;20212;-75
2022/10/02 04:32:35;;;;;;;12.13;1.92;;;;;;;-145.69;100.00;71798.41;5034007;28;20614;-76
2022/10/02 04:35:12;;;;;;;4.47;1.27;;;;;;;-145.69;100.00;71784.47;5033538;28;20289;-76
2022/10/02 04:37:55;;;;;;;8.20;1.30;;;;;;;-145.69;100.00;71796.41;5033977;28;20588;-76
2022/10/02 04:40:33;;;;;;;11.70;1.58;;;;;;;-145.69;100.00;71788.44;5033722;28;20227;-76
2022/10/02 04:43:14;;;;;;;8.02;1.33;;;;;;;-145.69;100.00;71788.44;5033727;28;20621;-75
2022/10/02 04:46:00;;;;;;;7.13;1.55;;;;;;;-145.69;100.00;71764.56;5033739;28;20196;-76
2022/10/02 04:48:47;;;;;;;7.47;1.23;;;;;;;-145.69;100.00;71768.53;5033965;28;20222;-75
2022/10/02 04:51:26;;;;;;;12.05;1.60;;;;;;;-145.69;100.00;71774.50;5033886;28;20204;-76
2022/10/02 04:54:14;;;;;;;8.73;1.40;;;;;;;-145.69;100.00;71764.56;5033807;28;20339;-75
2022/10/02 04:56:59;;;;;;;7.05;1.20;;;;;;;-145.69;100.00;71768.53;5033610;28;20196;-76
2022/10/02 04:59:39;;;;;;;7.13;1.38;;;;;;;-145.69;100.00;71768.53;5033630;28;20655;-75
2022/10/02 05:02:21;;;;;;;5.57;1.27;;;;;;;-145.69;100.00;71762.56;5033381;28;20199;-76
2022/10/02 05:05:10;;;;;;;6.85;1.30;;;;;;;-145.69;100.00;71754.63;5033189;28;20204;-75
2022/10/02 05:07:50;;;;;;;7.25;1.20;;;;;;;-145.69;100.00;71768.53;5026704;28;20204;-76
2022/10/02 05:10:35;;;;;;;4.97;1.30;;;;;;;-145.69;100.00;71764.56;5033624;28;20204;-76
2022/10/02 05:13:16;;;;;;;8.57;1.33;;;;;;;-145.69;100.00;71760.59;5033412;28;20702;-75
2022/10/02 05:16:11;;;;;;;9.63;1.70;;;;;;;-145.69;100.00;71776.50;5033092;28;20235;-75
2022/10/02 05:18:59;;;;;;;10.57;1.75;;;;;;;-145.69;100.00;71794.41;5033332;28;20204;-76
2022/10/02 05:22:04;;;;;;;6.13;1.20;;;;;;;-145.69;100.00;71792.44;5033224;28;20245;-76
2022/10/02 05:24:45;;;;;;;11.77;1.92;;;;;;;-145.69;100.00;71774.50;4983577;28;20626;-76
2022/10/02 05:27:36;;;;;;;10.07;1.73;;;;;;;-145.69;100.00;71768.53;5033181;28;20204;-75
2022/10/02 05:30:09;;;;;;;6.75;1.70;;;;;;;-145.69;100.00;71782.47;5033262;28;20243;-75
2022/10/02 05:33:31;;;;;;;4.90;1.30;;;;;;;-145.69;100.00;71776.50;5032791;28;20196;-76
2022/10/02 05:36:14;;;;;;;8.75;1.40;;;;;;;-145.69;100.00;71788.44;5026922;28;20200;-76
2022/10/02 05:39:00;;;;;;;8.20;1.30;;;;;;;-145.69;100.00;71798.41;5033144;28;20200;-75
2022/10/02 05:41:37;;;;;;;6.75;1.50;;;;;;;-145.69;100.00;71778.50;5032987;28;20228;-76
2022/10/02 05:44:09;;;;;;;5.38;1.35;;;;;;;-145.69;100.00;71746.66;5032803;28;20211;-75
2022/10/02 05:46:39;;;;;;;6.95;1.55;;;;;;;-145.69;100.00;71748.66;5032843;28;20540;-75
2022/10/02 05:49:12;;;;;;;4.95;1.23;;;;;;;-145.69;100.00;71736.72;5033011;28;20623;-76
2022/10/02 05:51:46;;;;;;;8.82;1.80;;;;;;;-145.69;100.00;71728.75;5033017;28;20200;-75
2022/10/02 05:54:21;;;;;;;5.30;1.02;;;;;;;-145.69;100.00;71738.69;5032699;28;20203;-75
2022/10/02 05:56:54;;;;;;;6.32;1.30;;;;;;;-145.69;100.00;71742.69;5032806;28;20203;-76
2022/10/02 05:59:28;;;;;;;8.38;1.48;;;;;;;-145.69;100.00;71736.72;5033235;28;20228;-77
2022/10/02 06:01:58;;;;;;;5.80;1.58;;;;;;;-145.69;100.00;71740.69;5032760;28;20223;-76
2022/10/02 06:04:30;;;;;;;4.78;1.30;;;;;;;-145.69;100.00;71716.81;5031770;28;20188;-75
2022/10/02 06:07:01;;;;;;;5.93;1.40;;;;;;;-145.69;100.00;71700.88;5012915;28;20466;-76
2022/10/02 06:09:33;;;;;;;7.88;1.40;;;;;;;-145.69;100.00;71704.88;5012513;28;20206;-76
2022/10/02 06:12:04;;;;;;;8.65;1.63;;;;;;;-145.69;100.00;71698.91;5012645;28;20670;-75
2022/10/02 06:14:36;;;;;;;6.68;1.35;;;;;;;-145.69;100.00;71708.84;5013088;28;20200;-76
2022/10/02 06:17:08;;;;;;;7.95;1.40;;;;;;;-145.69;100.00;71702.88;5012714;28;20225;-76
2022/10/02 06:19:40;;;;;;;4.97;1.65;;;;;;;-145.69;100.00;71708.84;5012578;28;20236;-76
2022/10/02 06:22:13;;;;;;;11.48;1.77;;;;;;;-145.69;100.00;71702.88;5013051;28;20567;-75
2022/10/02 06:24:47;;;;;;;9.82;1.83;;;;;;;-145.69;100.00;71702.88;5013077;28;20239;-75
2022/10/02 06:27:23;;;;;;;9.38;2.50;;;;;;;-145.69;100.00;71688.94;5012932;28;20209;-76
2022/10/02 06:29:57;;;;;;;8.10;2.13;;;;;;;-145.69;100.00;71680.97;5012508;28;20211;-75
2022/10/02 06:32:33;;;;;;;11.60;2.78;;;;;;;-145.69;100.00;71657.09;5018140;28;20562;-75
2022/10/02 06:35:00;;;;;;;10.25;3.10;;;;;;;-145.69;100.00;71639.19;5032582;28;20686;-75
2022/10/02 06:37:37;;;;;;;11.73;3.00;;;;;;;-145.69;100.00;71639.19;5032405;28;20208;-75
2022/10/02 06:40:20;;;;;;;7.80;1.35;;;;;;;-145.69;100.00;71617.31;5032215;28;20210;-76
2022/10/02 06:42:57;;;;;;;11.18;2.40;;;;;;;-145.69;100.00;71607.34;5012548;28;20201;-76
2022/10/02 06:45:35;;;;;;;21.58;7.15;;;;;;;-145.69;100.00;71605.38;5025181;28;20235;-75
2022/10/02 06:48:07;;;;;;;7.15;2.28;;;;;;;-145.69;100.00;71591.44;5034791;28;20211;-75
2022/10/02 06:50:48;;;;;;;5.45;1.65;;;;;;;-145.69;100.00;71587.47;5036416;28;20239;-76
2022/10/02 06:53:32;;;;;;;6.47;1.10;;;;;;;-145.69;100.00;71583.47;5037884;28;20208;-75
2022/10/02 06:56:06;;;;;;;9.02;1.45;;;;;;;-145.69;100.00;71581.50;5036847;28;20554;-76
2022/10/02 06:58:55;;;;;;;10.18;1.60;;;;;;;-145.69;100.00;71561.59;5035975;28;20204;-75
2022/10/02 07:01:35;;;;;;;4.15;1.50;;;;;;;-145.69;100.00;71567.56;5035761;28;20698;-76
2022/10/02 07:04:19;;;;;;;5.68;1.38;;;;;;;-145.69;100.00;71565.56;5035289;28;20196;-76
2022/10/02 07:07:03;;;;;;;2.95;1.00;;;;;;;-145.69;100.00;71565.56;5035599;28;20235;-76
2022/10/02 07:09:43;;;;;;;3.83;1.15;;;;;;;-145.69;100.00;71557.59;5036008;28;20212;-75
2022/10/02 07:12:23;;;;;;;4.90;0.85;;;;;;;-145.69;100.00;71549.66;5035775;28;20203;-76
2022/10/02 07:15:06;;;;;;;5.72;1.10;;;;;;;-145.69;100.00;71541.69;5035591;28;20200;-76
2022/10/02 07:17:48;;;;;;;8.25;0.95;;;;;;;-145.69;100.00;71519.81;5035224;28;20702;-75
2022/10/02 07:20:29;;;;;;;2.22;1.08;;;;;;;-145.69;100.00;71511.84;5035421;28;20206;-76
2022/10/02 07:23:25;;;;;;;2.17;1.17;;;;;;;-145.69;100.00;71493.94;5035354;28;20207;-76
2022/10/02 07:26:13;;;;;;;1.85;0.90;;;;;;;-145.69;100.00;71478.00;5035511;28;20291;-76
2022/10/02 07:28:44;;;;;;;7.32;1.10;;;;;;;-145.69;100.00;71466.06;5035473;28;20690;-76
2022/10/02 07:31:22;;;;;;;4.63;0.90;;;;;;;-145.69;100.00;71474.03;5035409;28;20204;-76
2022/10/02 07:34:03;;;;;;;2.33;0.75;;;;;;;-145.69;100.00;71458.09;5035042;28;20206;-76
2022/10/02 07:36:45;;;;;;;7.32;0.90;;;;;;;-145.69;100.00;71468.06;5035102;28;20287;-75
2022/10/02 07:39:26;;;;;;;6.57;1.10;;;;;;;-145.69;100.00;71468.06;5035301;28;20199;-77
2022/10/02 07:42:10;;;;;;;3.10;1.40;;;;;;;-145.69;100.00;71466.06;5034957;28;20234;-76
2022/10/02 07:44:51;;;;;;;3.65;0.90;;;;;;;-145.69;100.00;71456.13;5035326;28;20204;-75
2022/10/02 07:47:33;;;;;;;3.03;1.02;;;;;;;-145.69;100.00;71442.19;5035081;28;20258;-75
2022/10/02 07:50:10;;;;;;;4.38;0.93;;;;;;;-145.69;100.00;71442.19;5034677;28;20447;-77
2022/10/02 07:52:46;;;;;;;5.20;1.17;;;;;;;-145.69;100.00;71412.34;5034846;28;20206;-77
2022/10/02 07:55:18;;;;;;;4.43;1.23;;;;;;;-145.69;100.00;71410.34;5035034;28;20204;-77
2022/10/02 07:57:56;;;;;;;7.80;1.40;;;;;;;-145.69;100.00;71398.41;5034358;28;20208;-77
2022/10/02 08:00:25;;;;;;;9.52;2.63;;;;;;;-145.69;100.00;71394.44;5034824;28;20204;-76
2022/10/02 08:02:57;;;;;;;2.10;0.88;;;;;;;-145.69;100.00;71376.53;5034279;28;20550;-77
2022/10/02 08:05:27;;;;;;;4.50;1.60;;;;;;;-145.69;100.00;71376.53;5034860;28;20230;-77
2022/10/02 08:08:02;;;;;;;4.43;1.20;;;;;;;-145.69;100.00;71396.44;5034630;28;20318;-76
2022/10/02 08:10:35;;;;;;;1.90;0.95;;;;;;;-145.69;100.00;71390.47;5034352;28;20203;-76
2022/10/02 08:13:13;;;;;;;3.47;1.23;;;;;;;-145.69;100.00;71362.59;5034757;28;20200;-77
2022/10/02 08:15:44;;;;;;;3.35;0.90;;;;;;;-145.69;100.00;71348.66;5034641;28;20208;-76
2022/10/02 08:18:21;;;;;;;1.73;0.90;;;;;;;-145.69;100.00;71338.72;5034338;28;20226;-76
2022/10/02 08:20:49;;;;;;;1.10;0.60;;;;;;;-145.69;100.00;71350.66;5034403;28;20299;-77
2022/10/02 08:23:23;;;;;;;2.30;0.80;;;;;;;-145.69;100.00;71340.72;5034465;28;20208;-76
2022/10/02 08:25:57;;;;;;;2.95;0.80;;;;;;;-145.69;100.00;71326.78;5034232;28;20565;-76
2022/10/02 08:28:30;;;;;;;3.88;0.88;;;;;;;-145.69;100.00;71310.84;5034507;28;20559;-77
2022/10/02 08:30:57;;;;;;;3.25;0.90;;;;;;;-145.69;100.00;71290.97;5034168;28;20817;-78
2022/10/02 08:33:32;;;;;;;3.30;1.25;;;;;;;-145.69;100.00;71294.94;5033983;28;20250;-76
2022/10/02 08:36:17;;;;;;;5.20;0.95;;;;;;;-145.69;100.00;71267.09;5033972;28;20203;-78
2022/10/02 08:38:50;;;;;;;3.83;0.88;;;;;;;-145.69;100.00;71263.09;5034090;28;20246;-78
2022/10/02 08:41:43;;;;;;;1.70;0.80;;;;;;;-145.69;100.00;71231.28;5033591;28;20461;-78
2022/10/02 08:44:42;;;;;;;1.17;0.70;;;;;;;-145.69;100.00;71215.34;5033631;28;20206;-76
2022/10/02 08:47:47;;;;;;;0.95;0.50;;;;;;;-145.69;100.00;71223.31;5008475;28;20287;-79
2022/10/02 08:50:52;;;;;;;2.17;0.60;;;;;;;-145.69;100.00;71211.38;5034067;28;20200;-77
2022/10/02 08:53:56;;;;;;;0.95;0.40;;;;;;;-145.69;100.00;71193.47;5033890;28;20666;-76
2022/10/02 08:56:53;;;;;;;0.82;0.50;;;;;;;-145.69;100.00;71187.50;5033479;28;20650;-78
2022/10/02 08:59:59;;;;;;;1.35;0.60;;;;;;;-145.69;100.00;71157.66;5033845;28;20211;-77
2022/10/02 09:03:10;;;;;;;0.52;0.50;;;;;;;-145.69;100.00;71165.59;5032934;28;20242;-79
2022/10/02 09:06:13;;;;;;;1.58;0.68;;;;;;;-145.69;100.00;71147.69;5033481;28;20199;-77
2022/10/02 09:09:12;;;;;;;1.15;0.60;;;;;;;-145.69;100.00;71163.63;5033508;28;20239;-78
2022/10/02 09:12:20;;;;;;;0.80;0.50;;;;;;;-145.69;100.00;71203.41;5033611;28;20307;-76
2022/10/02 09:14:51;;;;;;;0.47;0.30;;;;;;;-145.69;100.00;71187.50;5009047;28;20287;-77
2022/10/02 09:17:52;;;;;;;3.75;0.55;;;;;;;-145.69;100.00;71179.53;5033209;28;20238;-77
2022/10/02 09:20:41;;;;;;;1.33;0.90;;;;;;;-145.69;100.00;71151.69;5032844;28;20223;-76
2022/10/02 09:23:37;;;;;;;0.70;0.60;;;;;;;-145.69;100.00;71141.72;5033342;28;20215;-78
2022/10/02 09:26:19;;;;;;;0.43;0.43;;;;;;;-145.69;100.00;71123.81;5033523;28;20200;-76
2022/10/02 09:29:29;;;;;;;2.10;1.08;;;;;;;-145.69;100.00;71115.88;5033362;28;20294;-77
2022/10/02 09:32:25;;;;;;;1.58;0.50;;;;;;;-145.69;100.00;71066.13;5017987;28;20356;-78
2022/10/02 09:35:20;;;;;;;1.73;1.08;;;;;;;-145.69;100.00;71056.16;5032934;28;20291;-77
2022/10/02 09:38:13;;;;;;;1.77;1.00;;;;;;;-145.69;100.00;71062.13;5032641;28;20254;-78
2022/10/02 09:41:09;;;;;;;1.45;0.57;;;;;;;-145.69;100.00;71113.88;5032976;28;20658;-76
2022/10/02 09:44:02;;;;;;;1.25;0.43;;;;;;;-145.69;100.00;71115.88;5033174;28;20222;-77
2022/10/02 09:46:59;;;;;;;0.70;0.40;;;;;;;-145.69;100.00;71101.94;5032956;28;20200;-76
2022/10/02 09:50:01;;;;;;;1.90;0.60;;;;;;;-145.69;100.00;71090.00;5032998;28;20669;-79
2022/10/02 09:53:18;;;;;;;2.15;0.50;;;;;;;-145.69;100.00;71103.94;5032781;28;20289;-77
2022/10/02 09:56:19;;;;;;;0.68;0.60;;;;;;;-145.69;100.00;71123.81;5011382;28;20232;-76
2022/10/02 09:59:17;;;;;;;0.60;0.38;;;;;;;-145.69;100.00;71143.72;5012860;28;20211;-75
2022/10/02 10:02:14;;;;;;;0.60;0.60;;;;;;;-145.69;100.00;71139.75;5028456;28;20263;-75
2022/10/02 10:05:25;;;;;;;1.75;0.50;;;;;;;-145.69;100.00;71157.66;5032793;28;20196;-75
2022/10/02 10:08:22;;;;;;;0.60;0.60;;;;;;;-145.69;100.00;71163.63;5032959;28;20203;-76
2022/10/02 10:11:29;;;;;;;1.13;0.73;;;;;;;-145.69;100.00;71139.75;5032720;28;20207;-75
2022/10/02 10:14:40;;;;;;;0.90;0.50;;;;;;;-145.69;100.00;71129.78;5032923;28;20208;-78
2022/10/02 10:17:55;;;;;;;2.03;0.47;;;;;;;-145.69;100.00;71135.75;5032385;28;20235;-76
2022/10/02 10:20:53;;;;;;;1.20;0.50;;;;;;;-145.69;100.00;71119.84;5032952;28;20200;-77
2022/10/02 10:23:42;;;;;;;0.75;0.45;;;;;;;-145.69;100.00;71139.75;5036602;28;20204;-76
2022/10/02 10:26:33;;;;;;;3.03;0.40;;;;;;;-145.69;100.00;71143.72;5036936;28;20200;-76
2022/10/02 10:29:32;;;;;;;0.40;0.40;;;;;;;-145.69;100.00;71111.88;5036729;28;20795;-75
2022/10/02 10:32:41;;;;;;;0.43;0.43;;;;;;;-145.69;100.00;71111.88;5036444;28;20235;-76
2022/10/02 10:35:35;;;;;;;0.93;0.40;;;;;;;-145.69;100.00;71097.97;5037136;28;20378;-75
2022/10/02 10:38:36;;;;;;;0.40;0.40;;;;;;;-145.69;100.00;71084.03;5037419;28;20219;-76
2022/10/02 10:41:38;;;;;;;0.43;0.38;;;;;;;-145.69;100.00;71092.00;5035634;28;20195;-76
2022/10/02 10:44:39;;;;;;;0.55;0.43;;;;;;;-145.69;100.00;71068.13;5035193;28;20203;-77
2022/10/02 10:47:34;;;;;;;0.30;0.30;;;;;;;-145.69;97.73;71048.22;5019640;28;20227;-76
2022/10/02 10:50:23;;;;;;;0.47;0.40;;;;;;;-145.69;100.00;71062.13;5034657;28;20199;-76
2022/10/02 10:53:18;;;;;;;0.50;0.40;;;;;;;-145.69;100.00;71068.13;5035463;28;20211;-76
2022/10/02 10:56:09;;;;;;;0.57;0.38;;;;;;;-145.69;100.00;71092.00;5036263;28;20200;-76
2022/10/02 10:58:59;;;;;;;0.77;0.32;;;;;;;-145.69;100.00;71099.94;5035918;28;20218;-76
2022/10/02 11:01:41;;;;;;;0.30;0.30;;;;;;;-145.69;100.00;71101.94;5035662;28;20232;-76
2022/10/02 11:04:34;;;;;;;0.40;0.40;;;;;;;-145.69;100.00;71125.81;5036118;28;20204;-77
2022/10/02 11:07:16;;;;;;;0.32;0.32;;;;;;;-145.69;100.00;71143.72;5035850;28;20196;-76
2022/10/02 11:10:06;;;;;;;0.47;0.47;;;;;;;-145.69;100.00;71187.50;5036143;28;20295;-76
2022/10/02 11:13:02;;;;;;;0.30;0.30;;;;;;;-145.69;100.00;71229.28;5035948;28;20203;-75
2022/10/02 11:16:09;;;;;;;0.63;0.50;;;;;;;-145.69;100.00;71211.38;5035547;28;20655;-77
2022/10/02 11:18:58;;;;;;;0.75;0.50;;;;;;;-145.69;100.00;71217.34;5036012;28;20294;-77
2022/10/02 11:22:05;;;;;;;0.50;0.50;;;;;;;-145.69;100.00;71247.19;5035752;28;20200;-76
2022/10/02 11:25:18;;;;;;;0.32;0.32;;;;;;;-145.69;100.00;71251.16;5027639;28;20226;-77
2022/10/02 11:28:20;;;;;;;0.35;0.35;;;;;;;-145.69;100.00;71267.09;5035416;28;20200;-77
2022/10/02 11:30:59;;;;;;;2.40;0.50;;;;;;;-145.69;100.00;71261.13;5035179;28;20203;-76
2022/10/02 11:34:18;;;;;;;0.55;0.43;;;;;;;-145.69;100.00;71283.00;5034516;28;20211;-75
2022/10/02 11:36:57;;;;;;;0.40;0.40;;;;;;;-145.69;100.00;71283.00;4974173;28;20213;-75
2022/10/02 11:39:48;;;;;;;0.55;0.40;;;;;;;-145.69;100.00;71298.94;4974578;28;20284;-76
2022/10/02 11:42:44;;;;;;;0.68;0.68;;;;;;;-145.69;100.00;71298.94;5023828;28;20286;-76
2022/10/02 11:45:42;;;;;;;0.90;0.50;;;;;;;-145.69;100.00;71285.00;5035329;28;20204;-76
2022/10/02 11:48:21;;;;;;;0.55;0.55;;;;;;;-145.69;100.00;71263.09;5023258;28;20239;-76
2022/10/02 11:51:22;;;;;;;0.57;0.55;;;;;;;-145.69;100.00;71247.19;5035076;28;20203;-77
2022/10/02 11:54:06;;;;;;;0.85;0.80;;;;;;;-145.69;100.00;71247.19;5023710;28;20202;-77
2022/10/02 11:56:52;;;;;;;0.63;0.50;;;;;;;-145.69;100.00;71239.22;5034958;28;20200;-77
2022/10/02 11:59:32;;;;;;;3.75;0.50;;;;;;;-145.69;100.00;71235.25;5034671;28;20208;-77
2022/10/02 12:02:06;;;;;;;2.92;0.50;;;;;;;-145.69;100.00;71219.34;5019556;28;20590;-78
2022/10/02 12:04:46;;;;;;;0.73;0.55;;;;;;;-145.69;100.00;71217.34;5032434;28;20192;-77
2022/10/02 12:07:28;;;;;;;1.65;1.00;;;;;;;-145.69;100.00;71181.53;5034964;28;20206;-77
2022/10/02 12:10:13;;;;;;;1.38;0.57;;;;;;;-145.69;100.00;71161.63;5034637;28;20299;-76